LNK89W FAPE-FACT
Flight info
| Callsign | LNK89W |
|---|---|
| Flight time | 1h 17m |
| Altitude | 32000 |
| Route | OKRAV UQ49 ESRUK UQ51 GETEN GETEN1A |
| Aircraft | E195/M-SDE3GILORVW/S |
Departure
| Time | 2026-04-18 09:06 |
|---|---|
| Airport | Chief Dawid Stuurman International Airport (FAPE) |
Arrival
| Time | 2026-04-18 10:24 |
|---|---|
| Airport | Cape Town International Airport (FACT) |
| Time | Latitude | Longitude | Altitude | Speed | Heading |
|---|---|---|---|---|---|
| 2026-04-18 08:29 | -33.98372 | 25.61369 | 201 ft | 0 kts | 340° |
| 2026-04-18 08:56 | -33.98373 | 25.61370 | 198 ft | 1 kts | 340° |
| 2026-04-18 08:56 | -33.98375 | 25.61371 | 204 ft | 2 kts | 335° |
| 2026-04-18 08:57 | -33.98411 | 25.61381 | 203 ft | 3 kts | 18° |
| 2026-04-18 08:57 | -33.98428 | 25.61371 | 213 ft | 3 kts | 44° |
| 2026-04-18 08:57 | -33.98440 | 25.61354 | 210 ft | 2 kts | 53° |
| 2026-04-18 08:58 | -33.98445 | 25.61346 | 210 ft | 1 kts | 53° |
| 2026-04-18 09:01 | -33.98444 | 25.61348 | 208 ft | 1 kts | 53° |
| 2026-04-18 09:01 | -33.98432 | 25.61369 | 201 ft | 5 kts | 55° |
| 2026-04-18 09:01 | -33.98417 | 25.61409 | 210 ft | 6 kts | 74° |
| 2026-04-18 09:02 | -33.98405 | 25.61465 | 209 ft | 8 kts | 75° |
| 2026-04-18 09:02 | -33.98378 | 25.61527 | 201 ft | 9 kts | 59° |
| 2026-04-18 09:02 | -33.98341 | 25.61603 | 205 ft | 11 kts | 60° |
| 2026-04-18 09:02 | -33.98299 | 25.61685 | 206 ft | 12 kts | 57° |
| 2026-04-18 09:03 | -33.98253 | 25.61774 | 209 ft | 13 kts | 59° |
| 2026-04-18 09:03 | -33.98232 | 25.61870 | 206 ft | 10 kts | 110° |
| 2026-04-18 09:03 | -33.98273 | 25.61914 | 201 ft | 7 kts | 147° |
| 2026-04-18 09:03 | -33.98276 | 25.61916 | 211 ft | 0 kts | 147° |
| 2026-04-18 09:04 | -33.98282 | 25.61921 | 211 ft | 2 kts | 147° |
| 2026-04-18 09:04 | -33.98299 | 25.61934 | 202 ft | 4 kts | 147° |
| 2026-04-18 09:04 | -33.98328 | 25.61956 | 202 ft | 5 kts | 151° |
| 2026-04-18 09:04 | -33.98352 | 25.61959 | 204 ft | 2 kts | 189° |
| 2026-04-18 09:05 | -33.98364 | 25.61952 | 207 ft | 2 kts | 214° |
| 2026-04-18 09:05 | -33.98371 | 25.61941 | 204 ft | 2 kts | 232° |
| 2026-04-18 09:05 | -33.98436 | 25.61816 | 199 ft | 49 kts | 238° |
| 2026-04-18 09:05 | -33.98742 | 25.61222 | 212 ft | 115 kts | 237° |
| 2026-04-18 09:06 | -33.99249 | 25.60217 | 374 ft | 158 kts | 242° |
| 2026-04-18 09:06 | -33.99855 | 25.59089 | 1201 ft | 163 kts | 239° |
| 2026-04-18 09:06 | -34.00565 | 25.58090 | 2446 ft | 152 kts | 232° |
| 2026-04-18 09:06 | -34.01391 | 25.57109 | 2905 ft | 190 kts | 231° |
| 2026-04-18 09:07 | -34.02050 | 25.55682 | 3460 ft | 197 kts | 265° |
| 2026-04-18 09:07 | -34.01965 | 25.54124 | 4703 ft | 177 kts | 273° |
| 2026-04-18 09:07 | -34.01911 | 25.52683 | 5562 ft | 174 kts | 270° |
| 2026-04-18 09:07 | -34.01879 | 25.51114 | 5835 ft | 200 kts | 271° |
| 2026-04-18 09:08 | -34.01834 | 25.49359 | 6222 ft | 220 kts | 271° |
| 2026-04-18 09:08 | -34.01780 | 25.47476 | 6683 ft | 235 kts | 271° |
| 2026-04-18 09:08 | -34.01733 | 25.45420 | 7183 ft | 249 kts | 272° |
| 2026-04-18 09:08 | -34.01668 | 25.43332 | 7816 ft | 254 kts | 272° |
| 2026-04-18 09:09 | -34.01608 | 25.41148 | 8546 ft | 257 kts | 273° |
| 2026-04-18 09:09 | -34.01551 | 25.39015 | 9220 ft | 261 kts | 273° |
| 2026-04-18 09:09 | -34.01491 | 25.36815 | 9959 ft | 263 kts | 274° |
| 2026-04-18 09:09 | -34.01428 | 25.34615 | 10642 ft | 267 kts | 274° |
| 2026-04-18 09:10 | -34.01362 | 25.32299 | 10954 ft | 284 kts | 274° |
| 2026-04-18 09:10 | -34.01300 | 25.29907 | 11520 ft | 290 kts | 274° |
| 2026-04-18 09:10 | -34.01232 | 25.27456 | 12229 ft | 292 kts | 274° |
| 2026-04-18 09:10 | -34.01164 | 25.25026 | 12956 ft | 294 kts | 274° |
| 2026-04-18 09:11 | -34.01092 | 25.22518 | 13707 ft | 296 kts | 274° |
| 2026-04-18 09:11 | -34.01022 | 25.20060 | 14360 ft | 298 kts | 274° |
| 2026-04-18 09:11 | -34.00949 | 25.17559 | 15032 ft | 300 kts | 274° |
| 2026-04-18 09:11 | -34.00878 | 25.15057 | 15700 ft | 301 kts | 274° |
| 2026-04-18 09:12 | -34.00802 | 25.12515 | 16357 ft | 303 kts | 274° |
| 2026-04-18 09:12 | -34.00728 | 25.09972 | 17008 ft | 305 kts | 274° |
| 2026-04-18 09:12 | -34.00652 | 25.07439 | 17641 ft | 307 kts | 274° |
| 2026-04-18 09:12 | -34.00576 | 25.04834 | 18287 ft | 309 kts | 274° |
| 2026-04-18 09:13 | -34.00499 | 25.02276 | 18876 ft | 309 kts | 274° |
| 2026-04-18 09:13 | -34.00420 | 24.99681 | 19492 ft | 310 kts | 274° |
| 2026-04-18 09:13 | -34.00341 | 24.97077 | 20114 ft | 312 kts | 274° |
| 2026-04-18 09:13 | -34.00261 | 24.94479 | 20748 ft | 313 kts | 274° |
| 2026-04-18 09:14 | -34.00180 | 24.91845 | 21332 ft | 315 kts | 274° |
| 2026-04-18 09:14 | -34.00097 | 24.89196 | 21890 ft | 316 kts | 274° |
| 2026-04-18 09:14 | -34.00015 | 24.86550 | 22438 ft | 317 kts | 274° |
| 2026-04-18 09:14 | -33.99930 | 24.83880 | 22966 ft | 319 kts | 274° |
| 2026-04-18 09:15 | -33.99847 | 24.81264 | 23472 ft | 320 kts | 275° |
| 2026-04-18 09:15 | -33.99761 | 24.78550 | 23901 ft | 322 kts | 274° |
| 2026-04-18 09:15 | -33.99673 | 24.75848 | 24315 ft | 324 kts | 274° |
| 2026-04-18 09:15 | -33.99585 | 24.73146 | 24736 ft | 325 kts | 274° |
| 2026-04-18 09:16 | -33.99497 | 24.70405 | 25171 ft | 327 kts | 274° |
| 2026-04-18 09:16 | -33.99407 | 24.67702 | 25604 ft | 328 kts | 274° |
| 2026-04-18 09:16 | -33.99315 | 24.64919 | 26034 ft | 330 kts | 274° |
| 2026-04-18 09:16 | -33.99216 | 24.62140 | 26424 ft | 332 kts | 274° |
| 2026-04-18 09:17 | -33.99189 | 24.59354 | 26828 ft | 335 kts | 271° |
| 2026-04-18 09:17 | -33.99224 | 24.56542 | 27206 ft | 336 kts | 271° |
| 2026-04-18 09:17 | -33.99264 | 24.53719 | 27571 ft | 338 kts | 271° |
| 2026-04-18 09:17 | -33.99309 | 24.50873 | 27944 ft | 339 kts | 271° |
| 2026-04-18 09:18 | -33.99352 | 24.48068 | 28297 ft | 340 kts | 271° |
| 2026-04-18 09:18 | -33.99395 | 24.45216 | 28652 ft | 342 kts | 271° |
| 2026-04-18 09:18 | -33.99439 | 24.42347 | 29007 ft | 344 kts | 271° |
| 2026-04-18 09:18 | -33.99480 | 24.39465 | 29420 ft | 343 kts | 271° |
| 2026-04-18 09:19 | -33.99522 | 24.36597 | 29916 ft | 341 kts | 271° |
| 2026-04-18 09:19 | -33.99556 | 24.33780 | 30355 ft | 339 kts | 270° |
| 2026-04-18 09:19 | -33.99603 | 24.30911 | 30810 ft | 336 kts | 271° |
| 2026-04-18 09:19 | -33.99640 | 24.28146 | 31259 ft | 334 kts | 271° |
| 2026-04-18 09:20 | -33.99677 | 24.25361 | 31705 ft | 331 kts | 271° |
| 2026-04-18 09:20 | -33.99713 | 24.22666 | 31835 ft | 313 kts | 271° |
| 2026-04-18 09:20 | -33.99746 | 24.20111 | 31867 ft | 301 kts | 271° |
| 2026-04-18 09:20 | -33.99776 | 24.17552 | 31914 ft | 309 kts | 271° |
| 2026-04-18 09:21 | -33.99844 | 24.12244 | 31955 ft | 324 kts | 271° |
| 2026-04-18 09:21 | -33.99908 | 24.06766 | 31947 ft | 328 kts | 271° |
| 2026-04-18 09:22 | -33.99971 | 24.01316 | 31933 ft | 327 kts | 271° |
| 2026-04-18 09:22 | -34.00032 | 23.95835 | 31931 ft | 326 kts | 271° |
| 2026-04-18 09:23 | -34.00090 | 23.90380 | 31932 ft | 326 kts | 271° |
| 2026-04-18 09:23 | -34.00145 | 23.84914 | 31941 ft | 326 kts | 271° |
| 2026-04-18 09:24 | -34.00198 | 23.79447 | 31934 ft | 326 kts | 271° |
| 2026-04-18 09:24 | -34.00250 | 23.74024 | 31930 ft | 326 kts | 271° |
| 2026-04-18 09:25 | -34.00297 | 23.68566 | 31937 ft | 326 kts | 271° |
| 2026-04-18 09:25 | -34.00343 | 23.63105 | 31928 ft | 325 kts | 271° |
| 2026-04-18 09:26 | -34.00386 | 23.57688 | 31938 ft | 325 kts | 271° |
| 2026-04-18 09:26 | -34.00427 | 23.52241 | 31930 ft | 325 kts | 271° |
| 2026-04-18 09:27 | -34.00466 | 23.46805 | 31941 ft | 325 kts | 271° |
| 2026-04-18 09:27 | -34.00502 | 23.41360 | 31933 ft | 325 kts | 271° |
| 2026-04-18 09:28 | -34.00536 | 23.35911 | 31933 ft | 325 kts | 271° |
| 2026-04-18 09:28 | -34.00568 | 23.30498 | 31934 ft | 324 kts | 271° |
| 2026-04-18 09:29 | -34.00597 | 23.25026 | 31937 ft | 325 kts | 271° |
| 2026-04-18 09:29 | -34.00624 | 23.19620 | 31940 ft | 325 kts | 271° |
| 2026-04-18 09:30 | -34.00648 | 23.14186 | 31936 ft | 324 kts | 272° |
| 2026-04-18 09:30 | -34.00670 | 23.08758 | 31940 ft | 324 kts | 272° |
| 2026-04-18 09:31 | -34.00687 | 23.03321 | 31939 ft | 324 kts | 272° |
| 2026-04-18 09:31 | -34.00706 | 22.97932 | 31930 ft | 324 kts | 272° |
| 2026-04-18 09:32 | -34.00720 | 22.92492 | 31935 ft | 325 kts | 272° |
| 2026-04-18 09:32 | -34.00733 | 22.87073 | 31949 ft | 324 kts | 272° |
| 2026-04-18 09:33 | -34.00743 | 22.81636 | 31935 ft | 324 kts | 272° |
| 2026-04-18 09:33 | -34.00750 | 22.76161 | 31951 ft | 324 kts | 272° |
| 2026-04-18 09:34 | -34.00755 | 22.70800 | 31936 ft | 324 kts | 272° |
| 2026-04-18 09:34 | -34.00758 | 22.65369 | 31946 ft | 324 kts | 272° |
| 2026-04-18 09:35 | -34.00759 | 22.59970 | 31935 ft | 323 kts | 272° |
| 2026-04-18 09:35 | -34.00757 | 22.54546 | 31941 ft | 323 kts | 272° |
| 2026-04-18 09:36 | -34.00752 | 22.49154 | 31942 ft | 323 kts | 272° |
| 2026-04-18 09:36 | -34.00746 | 22.43723 | 31935 ft | 323 kts | 272° |
| 2026-04-18 09:37 | -34.00739 | 22.38348 | 31949 ft | 323 kts | 272° |
| 2026-04-18 09:37 | -34.00715 | 22.32927 | 31940 ft | 323 kts | 272° |
| 2026-04-18 09:38 | -34.00689 | 22.27527 | 31938 ft | 323 kts | 273° |
| 2026-04-18 09:38 | -34.00659 | 22.22123 | 31940 ft | 323 kts | 273° |
| 2026-04-18 09:39 | -34.00629 | 22.16713 | 31954 ft | 322 kts | 273° |
| 2026-04-18 09:39 | -34.00596 | 22.11318 | 31928 ft | 322 kts | 273° |
| 2026-04-18 09:40 | -34.00561 | 22.05956 | 31943 ft | 323 kts | 273° |
| 2026-04-18 09:40 | -34.00523 | 22.00559 | 31937 ft | 322 kts | 273° |
| 2026-04-18 09:41 | -34.00482 | 21.95160 | 31939 ft | 323 kts | 273° |
| 2026-04-18 09:41 | -34.00440 | 21.89736 | 31944 ft | 323 kts | 273° |
| 2026-04-18 09:42 | -34.00396 | 21.84429 | 31937 ft | 323 kts | 273° |
| 2026-04-18 09:42 | -34.00347 | 21.79024 | 31957 ft | 323 kts | 273° |
| 2026-04-18 09:43 | -34.00297 | 21.73612 | 31915 ft | 322 kts | 273° |
| 2026-04-18 09:43 | -34.00247 | 21.68213 | 31958 ft | 322 kts | 273° |
| 2026-04-18 09:44 | -34.00192 | 21.62853 | 31937 ft | 322 kts | 273° |
| 2026-04-18 09:44 | -34.00136 | 21.57465 | 31947 ft | 321 kts | 274° |
| 2026-04-18 09:45 | -34.00075 | 21.52092 | 31942 ft | 321 kts | 274° |
| 2026-04-18 09:45 | -34.00017 | 21.46737 | 31942 ft | 321 kts | 274° |
| 2026-04-18 09:46 | -33.99954 | 21.41382 | 31935 ft | 320 kts | 273° |
| 2026-04-18 09:46 | -33.99887 | 21.36033 | 31944 ft | 320 kts | 274° |
| 2026-04-18 09:47 | -33.99817 | 21.30661 | 31940 ft | 320 kts | 274° |
| 2026-04-18 09:47 | -33.99746 | 21.25310 | 31940 ft | 320 kts | 274° |
| 2026-04-18 09:48 | -33.99673 | 21.19952 | 31939 ft | 319 kts | 274° |
| 2026-04-18 09:48 | -33.99597 | 21.14630 | 31931 ft | 319 kts | 274° |
| 2026-04-18 09:49 | -33.99515 | 21.09289 | 31950 ft | 319 kts | 274° |
| 2026-04-18 09:49 | -33.99439 | 21.03945 | 31942 ft | 319 kts | 274° |
| 2026-04-18 09:50 | -33.99356 | 20.98604 | 31946 ft | 319 kts | 274° |
| 2026-04-18 09:50 | -33.99272 | 20.93279 | 31940 ft | 319 kts | 275° |
| 2026-04-18 09:51 | -33.99184 | 20.87948 | 31945 ft | 319 kts | 274° |
| 2026-04-18 09:51 | -33.99094 | 20.82582 | 31927 ft | 320 kts | 274° |
| 2026-04-18 09:52 | -33.99001 | 20.77238 | 31942 ft | 320 kts | 274° |
| 2026-04-18 09:52 | -33.98904 | 20.71876 | 31941 ft | 320 kts | 274° |
| 2026-04-18 09:53 | -33.98811 | 20.66545 | 31926 ft | 321 kts | 275° |
| 2026-04-18 09:53 | -33.98712 | 20.61152 | 31943 ft | 321 kts | 275° |
| 2026-04-18 09:54 | -33.98614 | 20.55794 | 31945 ft | 320 kts | 275° |
| 2026-04-18 09:54 | -33.98506 | 20.50447 | 31939 ft | 320 kts | 275° |
| 2026-04-18 09:55 | -33.98404 | 20.45118 | 31923 ft | 319 kts | 275° |
| 2026-04-18 09:55 | -33.98295 | 20.39746 | 31884 ft | 321 kts | 275° |
| 2026-04-18 09:56 | -33.98186 | 20.34368 | 31920 ft | 321 kts | 275° |
| 2026-04-18 09:56 | -33.98077 | 20.28989 | 31941 ft | 320 kts | 275° |
| 2026-04-18 09:57 | -33.97959 | 20.23658 | 31935 ft | 320 kts | 275° |
| 2026-04-18 09:57 | -33.97842 | 20.18288 | 31944 ft | 321 kts | 275° |
| 2026-04-18 09:58 | -33.97723 | 20.12918 | 31928 ft | 320 kts | 275° |
| 2026-04-18 09:58 | -33.97601 | 20.07539 | 31940 ft | 321 kts | 275° |
| 2026-04-18 09:59 | -33.97474 | 20.02165 | 31933 ft | 321 kts | 275° |
| 2026-04-18 10:00 | -33.97287 | 19.94147 | 31935 ft | 321 kts | 275° |
| 2026-04-18 10:00 | -33.97158 | 19.88777 | 31923 ft | 321 kts | 276° |
| 2026-04-18 10:01 | -33.97277 | 19.83387 | 31951 ft | 328 kts | 265° |
| 2026-04-18 10:01 | -33.98638 | 19.78074 | 31961 ft | 335 kts | 258° |
| 2026-04-18 10:02 | -34.00386 | 19.72855 | 31937 ft | 341 kts | 252° |
| 2026-04-18 10:02 | -34.02517 | 19.67807 | 31939 ft | 341 kts | 252° |
| 2026-04-18 10:03 | -34.04507 | 19.62650 | 31958 ft | 331 kts | 262° |
| 2026-04-18 10:03 | -34.04866 | 19.57294 | 31829 ft | 320 kts | 276° |
| 2026-04-18 10:03 | -34.04788 | 19.54607 | 30963 ft | 324 kts | 277° |
| 2026-04-18 10:04 | -34.04554 | 19.51902 | 30057 ft | 326 kts | 282° |
| 2026-04-18 10:04 | -34.04204 | 19.49187 | 29033 ft | 331 kts | 281° |
| 2026-04-18 10:04 | -34.03835 | 19.46415 | 27990 ft | 335 kts | 282° |
| 2026-04-18 10:04 | -34.03453 | 19.43657 | 27300 ft | 331 kts | 281° |
| 2026-04-18 10:05 | -34.02870 | 19.41000 | 26581 ft | 326 kts | 290° |
| 2026-04-18 10:05 | -34.02215 | 19.38424 | 25911 ft | 325 kts | 283° |
| 2026-04-18 10:05 | -34.01995 | 19.35670 | 25207 ft | 326 kts | 276° |
| 2026-04-18 10:05 | -34.01903 | 19.32958 | 24547 ft | 323 kts | 278° |
| 2026-04-18 10:06 | -34.01576 | 19.30299 | 23937 ft | 321 kts | 281° |
| 2026-04-18 10:06 | -34.01284 | 19.27629 | 23263 ft | 320 kts | 279° |
| 2026-04-18 10:06 | -34.00998 | 19.25020 | 22553 ft | 318 kts | 280° |
| 2026-04-18 10:06 | -34.00714 | 19.22379 | 21877 ft | 316 kts | 280° |
| 2026-04-18 10:07 | -34.00423 | 19.19765 | 21210 ft | 314 kts | 280° |
| 2026-04-18 10:07 | -34.00142 | 19.17159 | 20556 ft | 313 kts | 280° |
| 2026-04-18 10:07 | -33.99860 | 19.14564 | 19927 ft | 311 kts | 280° |
| 2026-04-18 10:07 | -33.99577 | 19.11987 | 19306 ft | 311 kts | 280° |
| 2026-04-18 10:08 | -33.99289 | 19.09397 | 18594 ft | 313 kts | 280° |
| 2026-04-18 10:08 | -33.99018 | 19.06831 | 18035 ft | 309 kts | 281° |
| 2026-04-18 10:08 | -33.98724 | 19.04282 | 17471 ft | 307 kts | 280° |
| 2026-04-18 10:08 | -33.98460 | 19.01777 | 16911 ft | 305 kts | 280° |
| 2026-04-18 10:09 | -33.98171 | 18.99240 | 16308 ft | 303 kts | 280° |
| 2026-04-18 10:09 | -33.97894 | 18.96735 | 15753 ft | 302 kts | 279° |
| 2026-04-18 10:09 | -33.97620 | 18.94231 | 15189 ft | 300 kts | 279° |
| 2026-04-18 10:09 | -33.97352 | 18.91746 | 14688 ft | 297 kts | 279° |
| 2026-04-18 10:10 | -33.97088 | 18.89284 | 14025 ft | 299 kts | 279° |
| 2026-04-18 10:10 | -33.96949 | 18.86797 | 13435 ft | 301 kts | 266° |
| 2026-04-18 10:10 | -33.97654 | 18.84406 | 12807 ft | 310 kts | 241° |
| 2026-04-18 10:10 | -33.99217 | 18.82627 | 12241 ft | 322 kts | 216° |
| 2026-04-18 10:11 | -34.01326 | 18.81633 | 11688 ft | 327 kts | 202° |
| 2026-04-18 10:11 | -34.03510 | 18.80902 | 11180 ft | 326 kts | 200° |
| 2026-04-18 10:11 | -34.05700 | 18.80226 | 10685 ft | 323 kts | 199° |
| 2026-04-18 10:11 | -34.07871 | 18.79571 | 10193 ft | 320 kts | 199° |
| 2026-04-18 10:12 | -34.10025 | 18.78930 | 9697 ft | 318 kts | 197° |
| 2026-04-18 10:12 | -34.12252 | 18.78818 | 9153 ft | 324 kts | 178° |
| 2026-04-18 10:12 | -34.14484 | 18.79215 | 8645 ft | 323 kts | 174° |
| 2026-04-18 10:12 | -34.16678 | 18.79698 | 8150 ft | 321 kts | 173° |
| 2026-04-18 10:13 | -34.18859 | 18.80211 | 7648 ft | 319 kts | 173° |
| 2026-04-18 10:13 | -34.21027 | 18.80735 | 7155 ft | 317 kts | 173° |
| 2026-04-18 10:13 | -34.23162 | 18.81260 | 6681 ft | 315 kts | 173° |
| 2026-04-18 10:13 | -34.25298 | 18.81791 | 6203 ft | 313 kts | 173° |
| 2026-04-18 10:14 | -34.27434 | 18.82276 | 5719 ft | 308 kts | 180° |
| 2026-04-18 10:14 | -34.29485 | 18.81963 | 5228 ft | 294 kts | 206° |
| 2026-04-18 10:14 | -34.31273 | 18.80840 | 4729 ft | 286 kts | 219° |
| 2026-04-18 10:14 | -34.32711 | 18.79247 | 4213 ft | 277 kts | 236° |
| 2026-04-18 10:15 | -34.33705 | 18.77298 | 3725 ft | 271 kts | 246° |
| 2026-04-18 10:15 | -34.34538 | 18.75305 | 3551 ft | 259 kts | 248° |
| 2026-04-18 10:15 | -34.35059 | 18.73316 | 3350 ft | 242 kts | 271° |
| 2026-04-18 10:15 | -34.34644 | 18.71438 | 3082 ft | 238 kts | 304° |
| 2026-04-18 10:16 | -34.33334 | 18.70180 | 3027 ft | 244 kts | 336° |
| 2026-04-18 10:16 | -34.31677 | 18.69772 | 3018 ft | 243 kts | 347° |
| 2026-04-18 10:16 | -34.30013 | 18.69425 | 3023 ft | 243 kts | 343° |
| 2026-04-18 10:16 | -34.28356 | 18.68979 | 3030 ft | 244 kts | 345° |
| 2026-04-18 10:17 | -34.26700 | 18.68579 | 3007 ft | 238 kts | 344° |
| 2026-04-18 10:17 | -34.25134 | 18.68176 | 2969 ft | 224 kts | 344° |
| 2026-04-18 10:17 | -34.23655 | 18.67798 | 2976 ft | 211 kts | 343° |
| 2026-04-18 10:17 | -34.22254 | 18.67443 | 3021 ft | 201 kts | 343° |
| 2026-04-18 10:18 | -34.20894 | 18.67091 | 3027 ft | 200 kts | 343° |
| 2026-04-18 10:18 | -34.19544 | 18.66738 | 3024 ft | 201 kts | 343° |
| 2026-04-18 10:18 | -34.18175 | 18.66389 | 3011 ft | 203 kts | 343° |
| 2026-04-18 10:18 | -34.16763 | 18.66244 | 2978 ft | 208 kts | 1° |
| 2026-04-18 10:19 | -34.15334 | 18.66262 | 2963 ft | 202 kts | 343° |
| 2026-04-18 10:19 | -34.13998 | 18.65738 | 2995 ft | 199 kts | 337° |
| 2026-04-18 10:19 | -34.12653 | 18.65306 | 2963 ft | 204 kts | 343° |
| 2026-04-18 10:19 | -34.11280 | 18.64898 | 2716 ft | 204 kts | 341° |
| 2026-04-18 10:20 | -34.09936 | 18.64445 | 2455 ft | 192 kts | 341° |
| 2026-04-18 10:20 | -34.08732 | 18.64069 | 2214 ft | 172 kts | 342° |
| 2026-04-18 10:20 | -34.07655 | 18.63726 | 2085 ft | 146 kts | 341° |
| 2026-04-18 10:20 | -34.06737 | 18.63429 | 1889 ft | 132 kts | 342° |
| 2026-04-18 10:21 | -34.05877 | 18.63157 | 1690 ft | 125 kts | 342° |
| 2026-04-18 10:21 | -34.05044 | 18.62892 | 1498 ft | 121 kts | 344° |
| 2026-04-18 10:21 | -34.04242 | 18.62637 | 1321 ft | 117 kts | 342° |
| 2026-04-18 10:21 | -34.03440 | 18.62376 | 1173 ft | 119 kts | 344° |
| 2026-04-18 10:22 | -34.02633 | 18.62123 | 1011 ft | 121 kts | 343° |
| 2026-04-18 10:22 | -34.01811 | 18.61858 | 832 ft | 123 kts | 346° |
| 2026-04-18 10:22 | -34.01003 | 18.61604 | 659 ft | 122 kts | 345° |
| 2026-04-18 10:22 | -34.00196 | 18.61331 | 476 ft | 120 kts | 345° |
| 2026-04-18 10:23 | -33.99406 | 18.61071 | 296 ft | 114 kts | 345° |
| 2026-04-18 10:23 | -33.98647 | 18.60831 | 178 ft | 109 kts | 345° |
| 2026-04-18 10:23 | -33.97978 | 18.60632 | 155 ft | 88 kts | 348° |
| 2026-04-18 10:23 | -33.97469 | 18.60472 | 154 ft | 63 kts | 345° |
| 2026-04-18 10:24 | -33.97182 | 18.60363 | 159 ft | 30 kts | 329° |
| 2026-04-18 10:24 | -33.97111 | 18.60254 | 162 ft | 1 kts | 285° |
| 2026-04-18 10:24 | -33.97107 | 18.60238 | 162 ft | 3 kts | 285° |
| 2026-04-18 10:24 | -33.97101 | 18.60209 | 163 ft | 4 kts | 285° |
| 2026-04-18 10:25 | -33.97093 | 18.60176 | 164 ft | 5 kts | 285° |
| 2026-04-18 10:25 | -33.97084 | 18.60137 | 165 ft | 5 kts | 285° |
| 2026-04-18 10:25 | -33.97073 | 18.60089 | 166 ft | 7 kts | 286° |
| 2026-04-18 10:25 | -33.97061 | 18.60022 | 166 ft | 9 kts | 271° |
| 2026-04-18 10:26 | -33.97091 | 18.59971 | 166 ft | 7 kts | 205° |
| 2026-04-18 10:26 | -33.97108 | 18.59966 | 166 ft | 0 kts | 189° |
| 2026-04-18 10:26 | -33.97109 | 18.59966 | 166 ft | 0 kts | 185° |
| 2026-04-18 10:26 | -33.97110 | 18.59966 | 166 ft | 1 kts | 185° |
| 2026-04-18 10:27 | -33.97123 | 18.59966 | 166 ft | 3 kts | 179° |
| 2026-04-18 10:27 | -33.97129 | 18.59967 | 166 ft | 1 kts | 174° |
| 2026-04-18 10:27 | -33.97138 | 18.59972 | 166 ft | 1 kts | 150° |
| 2026-04-18 10:27 | -33.97142 | 18.59988 | 166 ft | 3 kts | 110° |
| 2026-04-18 10:28 | -33.97151 | 18.60032 | 166 ft | 5 kts | 97° |
| 2026-04-18 10:28 | -33.97145 | 18.60058 | 166 ft | 5 kts | 75° |
| 2026-04-18 10:28 | -33.97142 | 18.60072 | 166 ft | 0 kts | 75° |